Bolsover, United Kingdom
Current Conditions -  °F | °C
As of 3:50 PM on Friday 19 Dec 2014 (Local Time) from EGCN Reporting Station
Scattered Clouds Scattered Clouds  
Wind Chill: 40°   Ceiling: Unl
Heat Index: 46°   Visibility: 6mi
Dew Point: 37°   Wind: 15mph
Humidity: 71%   Direction: 260°W
Pressure: 29.94"   Gusts: NA
Location:  53.23°N, 1.29°W
Report Text: EGCN 191550Z 26013KT 9999 SCT029 SCT034 08/03 Q1014
Loading
Personal Weather Stations






























Interactive Weather Map New forecast layout! Learn more

10-Day Weather Forecast

Advertisements
Track Severe Weather on mobile